Time;durP1;ratioP1;P1;durP2;ratioP2;P2;SDS_P1;SDS_P2;PMS_P1;PMS_P2;Temp;Humidity;BMP_temperature;BMP_pressure;BME280_temperature;BME280_humidity;BME280_pressure;Samples;Min_cycle;Max_cycle;Signal;HPM_P1;HPM_P2
2022/10/02 00:02:29;;;;;;;21.50;5.05;;;11.70;99.90;;;;;;5037626;28;20037;-67
2022/10/02 00:05:02;;;;;;;18.42;5.35;;;11.60;99.90;;;;;;5035956;28;20037;-66
2022/10/02 00:07:36;;;;;;;26.48;5.10;;;11.50;99.90;;;;;;5037706;28;20033;-67
2022/10/02 00:10:18;;;;;;;16.95;4.95;;;11.70;99.90;;;;;;5040811;28;20045;-66
2022/10/02 00:12:46;;;;;;;19.67;5.00;;;11.50;99.90;;;;;;5035616;28;20090;-67
2022/10/02 00:15:24;;;;;;;19.02;4.45;;;11.50;99.90;;;;;;5037488;28;20051;-65
2022/10/02 00:17:54;;;;;;;19.92;4.60;;;11.50;99.90;;;;;;5037052;28;20049;-65
2022/10/02 00:20:26;;;;;;;18.80;4.50;;;11.40;99.90;;;;;;5035579;28;20044;-67
2022/10/02 00:23:08;;;;;;;18.45;4.78;;;11.30;99.90;;;;;;5039082;28;20127;-66
2022/10/02 00:25:53;;;;;;;20.77;4.30;;;11.50;99.90;;;;;;5034213;28;20037;-67
2022/10/02 00:28:29;;;;;;;12.98;4.10;;;11.30;99.90;;;;;;5037720;28;20041;-67
2022/10/02 00:30:57;;;;;;;22.63;4.13;;;11.30;99.90;;;;;;5064667;28;20041;-67
2022/10/02 00:33:40;;;;;;;21.38;3.88;;;11.40;99.90;;;;;;5023417;28;20026;-66
2022/10/02 00:36:11;;;;;;;15.27;4.22;;;11.40;99.90;;;;;;5041405;28;20381;-67
2022/10/02 00:38:50;;;;;;;27.02;4.55;;;11.30;99.90;;;;;;5038374;28;20385;-67
2022/10/02 00:41:29;;;;;;;19.35;4.10;;;11.40;99.90;;;;;;5071500;28;20045;-67
2022/10/02 00:44:39;;;;;;;22.70;4.50;;;11.30;99.90;;;;;;5061268;28;20081;-66
2022/10/02 00:47:22;;;;;;;18.80;4.05;;;11.30;99.90;;;;;;5072987;28;20040;-66
2022/10/02 00:50:05;;;;;;;20.10;4.20;;;11.30;99.90;;;;;;5038789;28;20045;-66
2022/10/02 00:52:43;;;;;;;19.27;3.97;;;11.30;99.90;;;;;;5039433;28;20041;-66
2022/10/02 00:55:29;;;;;;;16.63;4.60;;;11.30;99.90;;;;;;5073010;28;20091;-67
2022/10/02 00:58:13;;;;;;;22.27;4.40;;;11.30;99.90;;;;;;5074443;28;20068;-67
2022/10/02 01:00:44;;;;;;;19.73;4.13;;;11.50;99.90;;;;;;5070092;28;20044;-68
2022/10/02 01:03:27;;;;;;;20.27;4.43;;;11.40;99.90;;;;;;5038863;28;20453;-66
2022/10/02 01:05:52;;;;;;;17.90;4.10;;;11.50;99.90;;;;;;5071565;28;20511;-66
2022/10/02 01:08:18;;;;;;;22.25;4.20;;;11.60;99.90;;;;;;5036824;28;20124;-67
2022/10/02 01:10:44;;;;;;;21.05;4.45;;;11.50;99.90;;;;;;5073411;28;20499;-66
2022/10/02 01:13:10;;;;;;;20.40;4.93;;;11.60;99.90;;;;;;5034461;28;20435;-68
2022/10/02 01:15:45;;;;;;;21.15;5.50;;;11.60;99.90;;;;;;5067778;28;20044;-67
2022/10/02 01:18:13;;;;;;;25.02;5.35;;;11.70;99.90;;;;;;5045953;28;20094;-68
2022/10/02 01:20:43;;;;;;;24.45;5.35;;;11.80;99.90;;;;;;5070562;28;20051;-66
2022/10/02 01:23:38;;;;;;;26.50;5.95;;;11.80;99.90;;;;;;5041078;28;20392;-67
2022/10/02 01:26:04;;;;;;;22.50;5.38;;;11.70;99.90;;;;;;5009433;28;20045;-67
2022/10/02 01:28:30;;;;;;;27.20;6.03;;;11.80;99.90;;;;;;5043937;28;20033;-66
2022/10/02 01:31:03;;;;;;;25.38;6.88;;;11.90;99.90;;;;;;5043054;28;20045;-68
2022/10/02 01:33:30;;;;;;;28.33;6.03;;;11.70;99.90;;;;;;5040793;28;20041;-67
2022/10/02 01:35:56;;;;;;;30.17;5.70;;;11.80;99.90;;;;;;5036037;28;20047;-68
2022/10/02 01:38:23;;;;;;;27.70;6.47;;;11.80;99.90;;;;;;5040139;28;20042;-67
2022/10/02 01:40:49;;;;;;;22.50;5.63;;;11.80;99.90;;;;;;5044237;28;20040;-67
2022/10/02 01:43:29;;;;;;;24.67;6.00;;;11.80;99.90;;;;;;5036185;28;20086;-66
2022/10/02 01:46:27;;;;;;;23.75;5.97;;;11.70;99.90;;;;;;5070138;28;20051;-66
2022/10/02 01:49:04;;;;;;;23.58;6.35;;;11.60;99.90;;;;;;5031680;28;20076;-66
2022/10/02 01:51:47;;;;;;;29.73;7.18;;;11.60;99.90;;;;;;5039530;28;20081;-68
2022/10/02 01:54:29;;;;;;;23.02;5.95;;;11.70;99.90;;;;;;5037219;28;20132;-66
2022/10/02 01:57:09;;;;;;;30.08;6.32;;;11.60;99.90;;;;;;5036310;28;20103;-66
2022/10/02 02:00:08;;;;;;;31.63;6.25;;;11.50;99.90;;;;;;5037213;28;20499;-66
2022/10/02 02:02:56;;;;;;;28.08;6.00;;;11.50;99.90;;;;;;5039249;28;20036;-66
2022/10/02 02:05:39;;;;;;;24.75;6.13;;;11.50;99.90;;;;;;5041862;28;20049;-66
2022/10/02 02:08:31;;;;;;;24.67;5.97;;;11.40;99.90;;;;;;5071299;28;20029;-66
2022/10/02 02:11:11;;;;;;;26.15;5.82;;;11.50;99.90;;;;;;5073807;28;20179;-67
2022/10/02 02:13:54;;;;;;;24.67;5.70;;;11.40;99.90;;;;;;5035776;28;20438;-66
2022/10/02 02:16:41;;;;;;;30.38;5.38;;;11.40;99.90;;;;;;5040723;28;20037;-65
2022/10/02 02:19:22;;;;;;;26.23;5.35;;;11.30;99.90;;;;;;5071832;28;20047;-65
2022/10/02 02:22:06;;;;;;;20.10;5.97;;;11.40;99.90;;;;;;5071698;28;20094;-66
2022/10/02 02:24:38;;;;;;;25.67;5.53;;;11.40;99.90;;;;;;5042621;28;20523;-66
2022/10/02 02:27:05;;;;;;;22.80;5.30;;;11.20;99.90;;;;;;5040887;28;20037;-66
2022/10/02 02:29:37;;;;;;;27.60;5.32;;;11.20;99.90;;;;;;5037690;28;20076;-67
2022/10/02 02:32:07;;;;;;;22.03;5.17;;;11.30;99.90;;;;;;5035527;28;20545;-67
2022/10/02 02:34:38;;;;;;;25.60;5.10;;;11.40;99.90;;;;;;5067483;28;20283;-67
2022/10/02 02:37:12;;;;;;;24.05;5.35;;;11.50;99.90;;;;;;5041948;28;20504;-66
2022/10/02 02:39:53;;;;;;;24.85;5.15;;;11.40;99.90;;;;;;5040875;28;20051;-67
2022/10/02 02:42:22;;;;;;;21.30;4.32;;;11.50;99.90;;;;;;5033121;28;20041;-66
2022/10/02 02:45:18;;;;;;;24.55;4.57;;;11.40;99.90;;;;;;5033365;28;20073;-66
2022/10/02 02:47:53;;;;;;;19.17;4.20;;;11.40;99.90;;;;;;5033492;28;20045;-66
2022/10/02 02:50:32;;;;;;;20.88;3.58;;;11.40;99.90;;;;;;5041243;28;20041;-67
2022/10/02 02:53:11;;;;;;;19.00;3.63;;;11.30;99.90;;;;;;5039576;28;20164;-67
2022/10/02 02:55:52;;;;;;;15.35;3.40;;;11.20;99.90;;;;;;5040778;28;20041;-68
2022/10/02 02:58:23;;;;;;;17.38;3.10;;;11.30;99.90;;;;;;5017589;28;20033;-66
2022/10/02 03:00:49;;;;;;;10.07;2.65;;;11.20;99.90;;;;;;5041074;28;20045;-69
2022/10/02 03:03:15;;;;;;;11.70;3.25;;;11.20;99.90;;;;;;5035708;28;20122;-67
2022/10/02 03:05:46;;;;;;;18.10;2.90;;;11.30;99.90;;;;;;5037322;28;20138;-67
2022/10/02 03:08:22;;;;;;;13.70;2.95;;;11.20;99.90;;;;;;5035257;28;20056;-67
2022/10/02 03:11:08;;;;;;;15.32;3.00;;;11.20;99.90;;;;;;5041622;28;20148;-66
2022/10/02 03:13:53;;;;;;;15.18;2.80;;;11.30;99.90;;;;;;5038193;28;20780;-67
2022/10/02 03:16:34;;;;;;;13.73;3.00;;;11.20;99.90;;;;;;5031092;28;20041;-68
2022/10/02 03:19:25;;;;;;;15.82;2.90;;;11.20;99.90;;;;;;5036607;28;20091;-67
2022/10/02 03:22:09;;;;;;;10.97;3.27;;;11.10;99.90;;;;;;5033684;28;20135;-66
2022/10/02 03:24:44;;;;;;;16.08;3.15;;;11.20;99.90;;;;;;5034020;28;20041;-66
2022/10/02 03:27:19;;;;;;;16.20;2.97;;;11.20;99.90;;;;;;5037357;28;20045;-67
2022/10/02 03:30:11;;;;;;;16.77;3.53;;;11.10;99.90;;;;;;5037787;28;20312;-67
2022/10/02 03:32:39;;;;;;;21.20;3.35;;;11.00;99.90;;;;;;5033766;28;20526;-67
2022/10/02 03:35:10;;;;;;;11.13;3.20;;;11.00;99.90;;;;;;5038089;28;20124;-67
2022/10/02 03:37:37;;;;;;;14.45;3.60;;;11.00;99.90;;;;;;5068337;28;20087;-66
2022/10/02 03:40:05;;;;;;;14.23;3.45;;;11.00;99.90;;;;;;5041773;28;20041;-66
2022/10/02 03:42:33;;;;;;;19.35;3.70;;;10.90;99.90;;;;;;5035432;28;20047;-68
2022/10/02 03:44:58;;;;;;;13.43;3.42;;;11.10;99.90;;;;;;5036628;28;20044;-68
2022/10/02 03:47:24;;;;;;;19.02;4.00;;;11.10;99.90;;;;;;5033262;28;20043;-66
2022/10/02 03:49:50;;;;;;;19.05;4.40;;;10.90;99.90;;;;;;5019289;28;20527;-68
2022/10/02 03:52:18;;;;;;;19.25;4.30;;;11.00;99.90;;;;;;5035028;28;20072;-67
2022/10/02 03:54:44;;;;;;;16.40;3.88;;;11.00;99.90;;;;;;5037339;28;20063;-67
2022/10/02 03:57:18;;;;;;;22.88;4.40;;;11.00;99.90;;;;;;5041037;28;20068;-68
2022/10/02 03:59:59;;;;;;;19.52;3.88;;;10.90;99.90;;;;;;5070322;28;20139;-67
2022/10/02 04:02:53;;;;;;;24.65;4.45;;;10.90;99.90;;;;;;5034535;28;20098;-66
2022/10/02 04:05:48;;;;;;;19.33;4.70;;;10.90;99.90;;;;;;5039096;28;20037;-67
2022/10/02 04:08:18;;;;;;;21.63;4.78;;;10.80;99.90;;;;;;5043299;28;20203;-66
2022/10/02 04:10:49;;;;;;;16.15;4.68;;;10.80;99.90;;;;;;5068757;28;20042;-66
2022/10/02 04:13:31;;;;;;;17.50;4.82;;;10.80;99.90;;;;;;5036687;28;20047;-67
2022/10/02 04:16:00;;;;;;;24.67;5.05;;;10.90;99.90;;;;;;5041030;28;20435;-66
2022/10/02 04:18:34;;;;;;;22.95;4.93;;;10.90;99.90;;;;;;5035612;28;20092;-66
2022/10/02 04:21:08;;;;;;;23.45;5.00;;;10.80;99.90;;;;;;5071435;28;20136;-66
2022/10/02 04:23:56;;;;;;;18.23;4.78;;;10.90;99.90;;;;;;5050665;28;20117;-66
2022/10/02 04:26:28;;;;;;;21.20;4.60;;;10.90;99.90;;;;;;5039212;28;20060;-67
2022/10/02 04:28:59;;;;;;;18.43;5.00;;;10.90;99.90;;;;;;5040188;28;21016;-67
2022/10/02 04:31:27;;;;;;;25.88;5.47;;;10.80;99.90;;;;;;5037281;28;20439;-66
2022/10/02 04:34:00;;;;;;;21.58;4.65;;;10.90;99.90;;;;;;5039435;28;20075;-66
2022/10/02 04:37:01;;;;;;;29.65;5.55;;;10.90;99.90;;;;;;5069968;28;20095;-67
2022/10/02 04:39:56;;;;;;;18.05;5.13;;;10.90;99.90;;;;;;5036117;28;20536;-66
2022/10/02 04:42:31;;;;;;;29.92;5.57;;;10.90;99.90;;;;;;5035301;28;20045;-66
2022/10/02 04:45:09;;;;;;;30.13;6.03;;;10.80;99.90;;;;;;5064887;28;20045;-67
2022/10/02 04:47:47;;;;;;;22.38;5.38;;;10.90;99.90;;;;;;5052994;28;20139;-66
2022/10/02 04:50:28;;;;;;;25.35;4.90;;;10.90;99.90;;;;;;5066230;28;20340;-66
2022/10/02 04:53:11;;;;;;;28.85;5.65;;;10.90;99.90;;;;;;5066199;28;20041;-66
2022/10/02 04:55:48;;;;;;;21.75;5.32;;;10.90;99.90;;;;;;5036235;28;20071;-67
2022/10/02 04:58:45;;;;;;;25.98;5.68;;;10.80;99.90;;;;;;5065659;28;20096;-66
2022/10/02 05:01:46;;;;;;;34.80;5.72;;;10.70;99.90;;;;;;5067742;28;20120;-66
2022/10/02 05:04:50;;;;;;;31.17;5.72;;;10.80;99.90;;;;;;5025892;28;20041;-65
2022/10/02 05:07:35;;;;;;;33.13;5.97;;;10.70;99.90;;;;;;5071755;28;20046;-67
2022/10/02 05:10:21;;;;;;;29.98;5.80;;;10.80;99.90;;;;;;5040751;28;20053;-66
2022/10/02 05:13:07;;;;;;;27.27;6.50;;;10.80;99.90;;;;;;5063321;28;20129;-66
2022/10/02 05:15:52;;;;;;;32.40;6.57;;;10.70;99.90;;;;;;5040814;28;20041;-66
2022/10/02 05:18:40;;;;;;;34.45;6.63;;;10.70;99.90;;;;;;5038124;28;20122;-67
2022/10/02 05:21:24;;;;;;;31.10;6.88;;;10.70;99.90;;;;;;5037083;28;20052;-66
2022/10/02 05:24:14;;;;;;;28.98;6.50;;;10.60;99.90;;;;;;5073481;28;20037;-66
2022/10/02 05:27:01;;;;;;;31.67;5.97;;;10.70;99.90;;;;;;5069851;28;20173;-66
2022/10/02 05:29:48;;;;;;;26.48;6.45;;;10.60;99.90;;;;;;5039299;28;20041;-65
2022/10/02 05:32:31;;;;;;;30.63;5.90;;;10.70;99.90;;;;;;5042392;28;20484;-67
2022/10/02 05:35:11;;;;;;;26.45;6.40;;;10.60;99.90;;;;;;5036828;28;20706;-66
2022/10/02 05:38:02;;;;;;;26.75;5.72;;;10.60;99.90;;;;;;5040009;28;20387;-66
2022/10/02 05:40:39;;;;;;;33.13;6.07;;;10.70;99.90;;;;;;5035891;28;20120;-67
2022/10/02 05:43:10;;;;;;;28.05;5.85;;;10.60;99.90;;;;;;5066349;28;20041;-67
2022/10/02 05:45:47;;;;;;;31.20;6.35;;;10.60;99.90;;;;;;5037385;28;20522;-66
2022/10/02 05:48:37;;;;;;;27.55;5.72;;;10.70;99.90;;;;;;5040780;28;20056;-66
2022/10/02 05:51:11;;;;;;;29.52;5.32;;;10.60;99.90;;;;;;5042639;28;20094;-67
2022/10/02 05:53:44;;;;;;;22.08;5.20;;;10.60;99.90;;;;;;5034651;28;20029;-67
2022/10/02 05:56:16;;;;;;;28.50;6.50;;;10.70;99.90;;;;;;5044575;28;20447;-68
2022/10/02 05:58:54;;;;;;;28.77;6.03;;;10.60;99.90;;;;;;5035689;28;20070;-66
2022/10/02 06:01:37;;;;;;;28.48;5.88;;;10.60;99.90;;;;;;5080084;28;20036;-66
2022/10/02 06:04:07;;;;;;;30.08;6.05;;;10.60;99.90;;;;;;5050268;28;20060;-66
2022/10/02 06:06:37;;;;;;;32.55;6.30;;;10.70;99.90;;;;;;5050404;28;20140;-66
2022/10/02 06:09:17;;;;;;;33.17;6.30;;;10.70;99.90;;;;;;5049430;28;20395;-67
2022/10/02 06:11:46;;;;;;;30.10;5.65;;;10.70;99.90;;;;;;5028741;28;20036;-67
2022/10/02 06:14:16;;;;;;;27.33;5.50;;;10.80;99.90;;;;;;5037402;28;20037;-67
2022/10/02 06:16:54;;;;;;;24.77;5.85;;;10.80;99.90;;;;;;5057952;28;20483;-66
2022/10/02 06:19:32;;;;;;;31.88;5.63;;;10.80;99.90;;;;;;5038822;28;20029;-69
2022/10/02 06:22:15;;;;;;;28.05;5.60;;;10.90;99.90;;;;;;5042185;28;20037;-67
2022/10/02 06:24:57;;;;;;;33.33;5.43;;;11.00;99.90;;;;;;5022454;28;20045;-66
2022/10/02 06:27:47;;;;;;;23.67;5.07;;;11.10;99.90;;;;;;5071856;28;20029;-67
2022/10/02 06:30:18;;;;;;;31.48;5.30;;;11.10;99.90;;;;;;5057666;28;20351;-67
2022/10/02 06:33:12;;;;;;;27.35;5.22;;;11.20;99.90;;;;;;5038292;28;20044;-66
2022/10/02 06:35:59;;;;;;;27.25;4.72;;;11.30;99.90;;;;;;5037911;28;20123;-67
2022/10/02 06:38:47;;;;;;;29.70;5.30;;;11.30;99.90;;;;;;5046784;28;20476;-67
2022/10/02 06:41:53;;;;;;;28.85;5.80;;;11.40;99.90;;;;;;5053565;28;20391;-67
2022/10/02 06:44:31;;;;;;;30.15;5.13;;;11.40;99.90;;;;;;5003190;28;20587;-68
2022/10/02 06:47:43;;;;;;;26.85;4.88;;;11.50;99.90;;;;;;5006472;28;20042;-68
2022/10/02 06:50:47;;;;;;;30.73;5.53;;;11.60;99.90;;;;;;4965644;28;20074;-67
2022/10/02 06:53:34;;;;;;;28.92;4.97;;;11.70;99.90;;;;;;4963633;28;20055;-67
2022/10/02 06:56:11;;;;;;;24.20;5.38;;;11.80;99.90;;;;;;5068847;28;20041;-68
2022/10/02 06:59:01;;;;;;;24.45;4.70;;;11.70;99.90;;;;;;5040194;28;20040;-67
2022/10/02 07:01:31;;;;;;;26.50;5.28;;;11.80;99.90;;;;;;5036919;28;20045;-67
2022/10/02 07:04:30;;;;;;;21.42;4.07;;;11.90;99.90;;;;;;5049084;28;20043;-66
2022/10/02 07:07:11;;;;;;;26.55;5.07;;;11.90;99.90;;;;;;5049158;28;20049;-67
2022/10/02 07:09:59;;;;;;;26.38;4.20;;;12.00;99.90;;;;;;5047565;28;20095;-68
2022/10/02 07:12:52;;;;;;;30.13;5.18;;;12.00;99.90;;;;;;5035235;28;20077;-67
2022/10/02 07:15:56;;;;;;;28.48;4.65;;;12.20;99.90;;;;;;5052290;28;20048;-67
2022/10/02 07:18:59;;;;;;;22.75;4.78;;;12.30;99.90;;;;;;5054520;28;20396;-67
2022/10/02 07:21:28;;;;;;;;;;;12.50;99.90;;;;;;5017782;28;20408;-67
2022/10/02 07:24:25;;;;;;;23.90;4.60;;;12.60;99.90;;;;;;5038849;28;19924;-67
2022/10/02 07:26:58;;;;;;;24.48;4.20;;;12.80;99.90;;;;;;5031117;28;20053;-66
2022/10/02 07:29:47;;;;;;;25.25;5.18;;;12.90;99.90;;;;;;5034613;28;20535;-68
2022/10/02 07:32:15;;;;;;;22.98;4.88;;;13.10;99.90;;;;;;5036604;28;20049;-68
2022/10/02 07:35:05;;;;;;;25.27;4.07;;;13.20;99.90;;;;;;5065821;28;20029;-66
2022/10/02 07:38:12;;;;;;;26.10;5.28;;;13.20;99.90;;;;;;5044849;28;20487;-69
2022/10/02 07:40:59;;;;;;;18.65;4.28;;;13.30;99.90;;;;;;5025527;28;20103;-66
2022/10/02 07:43:36;;;;;;;28.20;4.55;;;13.30;99.90;;;;;;5037459;28;20051;-69
2022/10/02 07:46:29;;;;;;;22.70;4.50;;;13.30;99.90;;;;;;5038863;28;20053;-66
2022/10/02 07:49:01;;;;;;;25.00;4.50;;;13.30;99.90;;;;;;5068955;28;20687;-68
2022/10/02 07:51:52;;;;;;;26.13;5.25;;;13.40;99.90;;;;;;5032354;28;20132;-68
2022/10/02 07:54:31;;;;;;;25.38;4.78;;;13.50;99.90;;;;;;5036605;28;20037;-68
2022/10/02 07:57:15;;;;;;;23.33;4.35;;;13.60;99.90;;;;;;5062625;28;20506;-66
2022/10/02 07:59:42;;;;;;;24.90;4.00;;;13.50;99.90;;;;;;5031999;28;20033;-67
2022/10/02 08:02:25;;;;;;;17.70;3.90;;;13.70;99.90;;;;;;5034906;28;20484;-68
2022/10/02 08:04:57;;;;;;;19.20;4.05;;;13.60;99.90;;;;;;5041117;28;20053;-66
2022/10/02 08:07:24;;;;;;;24.40;4.28;;;13.60;99.90;;;;;;5043571;28;20037;-68
2022/10/02 08:09:53;;;;;;;29.50;4.60;;;13.60;99.90;;;;;;5057317;28;20033;-70
2022/10/02 08:12:46;;;;;;;21.88;4.32;;;13.70;99.90;;;;;;5035118;28;20037;-68
2022/10/02 08:15:19;;;;;;;23.88;3.78;;;13.90;99.90;;;;;;5039276;28;20119;-67
2022/10/02 08:18:02;;;;;;;27.20;4.18;;;13.90;99.90;;;;;;5036121;28;20041;-67
2022/10/02 08:20:33;;;;;;;19.90;3.88;;;14.10;99.90;;;;;;5050949;28;20098;-67
2022/10/02 08:23:08;;;;;;;17.10;4.10;;;14.10;99.90;;;;;;5070073;28;20578;-65
2022/10/02 08:25:57;;;;;;;25.65;3.80;;;14.20;99.90;;;;;;5037952;28;20052;-66
2022/10/02 08:29:00;;;;;;;17.90;3.50;;;14.30;99.90;;;;;;5067477;28;20033;-65
2022/10/02 08:31:26;;;;;;;15.27;3.03;;;14.40;99.90;;;;;;5034715;28;20043;-69
2022/10/02 08:33:52;;;;;;;17.33;3.28;;;14.40;99.90;;;;;;5071716;28;20049;-67
2022/10/02 08:36:58;;;;;;;24.63;3.20;;;14.50;99.90;;;;;;5068735;28;20044;-66
2022/10/02 08:39:46;;;;;;;16.55;3.10;;;14.60;99.90;;;;;;5066567;28;20044;-68
2022/10/02 08:42:30;;;;;;;22.63;3.70;;;14.70;99.90;;;;;;5025494;28;20047;-70
2022/10/02 08:45:34;;;;;;;18.05;3.20;;;14.70;99.90;;;;;;5041743;28;20503;-65
2022/10/02 08:48:16;;;;;;;14.90;2.33;;;14.80;99.90;;;;;;5030262;28;20052;-67
2022/10/02 08:50:51;;;;;;;15.60;3.15;;;14.90;99.90;;;;;;5043542;28;20041;-67
2022/10/02 08:53:38;;;;;;;17.75;2.90;;;14.90;99.90;;;;;;5041888;28;20036;-69
2022/10/02 08:56:07;;;;;;;26.15;4.25;;;15.00;99.90;;;;;;5064995;28;20135;-67
2022/10/02 08:59:11;;;;;;;21.80;3.40;;;15.20;99.90;;;;;;5047427;28;20048;-65
2022/10/02 09:01:52;;;;;;;21.02;3.10;;;15.30;99.90;;;;;;5044503;28;20072;-67
2022/10/02 09:04:39;;;;;;;26.47;3.87;;;15.40;99.90;;;;;;5040312;28;20045;-66
2022/10/02 09:07:16;;;;;;;16.55;2.92;;;15.40;99.90;;;;;;5066098;28;20116;-68
2022/10/02 09:09:44;;;;;;;21.23;3.28;;;15.50;99.90;;;;;;5050195;28;20123;-67
2022/10/02 09:12:32;;;;;;;17.20;3.30;;;15.50;99.90;;;;;;5046742;28;20452;-66
2022/10/02 09:15:30;;;;;;;27.65;3.40;;;15.60;99.90;;;;;;5076905;28;20440;-66
2022/10/02 09:17:58;;;;;;;29.42;3.75;;;15.70;99.90;;;;;;5049000;28;20042;-68
2022/10/02 09:20:27;;;;;;;25.48;3.65;;;15.70;99.90;;;;;;5048230;28;20551;-67
2022/10/02 09:23:20;;;;;;;18.40;3.17;;;15.60;99.90;;;;;;5047152;28;20568;-68
2022/10/02 09:26:18;;;;;;;25.45;3.17;;;15.60;99.90;;;;;;5032797;28;20042;-67
2022/10/02 09:28:50;;;;;;;17.10;3.30;;;15.60;99.90;;;;;;5045123;28;20068;-68
2022/10/02 09:31:17;;;;;;;15.40;2.88;;;15.60;99.90;;;;;;5050982;28;20033;-65
2022/10/02 09:34:11;;;;;;;20.42;3.10;;;15.60;99.90;;;;;;5039657;28;20071;-65
2022/10/02 09:37:15;;;;;;;19.77;3.75;;;15.60;99.90;;;;;;5041265;28;20454;-67
2022/10/02 09:40:02;;;;;;;23.42;4.50;;;15.80;99.90;;;;;;5036406;28;20459;-66
2022/10/02 09:43:12;;;;;;;23.75;3.72;;;15.90;99.90;;;;;;5073536;28;20032;-69
2022/10/02 09:46:10;;;;;;;12.45;2.65;;;16.00;99.90;;;;;;5078030;28;20124;-67
2022/10/02 09:49:13;;;;;;;15.57;2.75;;;16.00;99.90;;;;;;5033832;28;20167;-66
2022/10/02 09:52:06;;;;;;;20.77;3.03;;;15.90;99.90;;;;;;5039284;28;20033;-67
2022/10/02 09:55:03;;;;;;;20.13;3.33;;;15.80;99.90;;;;;;5036528;28;20043;-69
2022/10/02 09:57:45;;;;;;;17.13;3.20;;;15.80;99.90;;;;;;5048698;28;20033;-70
2022/10/02 10:00:37;;;;;;;17.17;3.35;;;15.80;99.90;;;;;;5075015;28;20037;-72
2022/10/02 10:03:21;;;;;;;20.35;3.13;;;15.70;99.90;;;;;;5047755;28;20091;-67
2022/10/02 10:06:00;;;;;;;14.98;3.13;;;15.70;99.90;;;;;;5048785;28;20040;-67
2022/10/02 10:08:38;;;;;;;16.67;3.00;;;15.70;99.90;;;;;;5035045;28;20056;-68
2022/10/02 10:11:18;;;;;;;22.85;3.78;;;15.70;99.90;;;;;;5076515;28;20036;-67
2022/10/02 10:14:02;;;;;;;21.65;3.05;;;15.80;99.90;;;;;;5041314;28;20713;-68
2022/10/02 10:16:50;;;;;;;18.20;3.13;;;15.80;99.90;;;;;;5040827;28;20049;-68
2022/10/02 10:19:38;;;;;;;21.45;3.10;;;15.90;99.90;;;;;;5070326;28;20048;-66
2022/10/02 10:22:38;;;;;;;20.02;2.60;;;15.90;99.90;;;;;;5040855;28;20041;-66
2022/10/02 10:25:09;;;;;;;23.38;3.70;;;16.00;99.90;;;;;;5027748;28;20422;-68
2022/10/02 10:27:55;;;;;;;25.83;3.80;;;16.10;99.90;;;;;;5033886;28;20044;-67
2022/10/02 10:31:04;;;;;;;17.17;2.85;;;16.20;99.90;;;;;;5036654;28;20037;-69
2022/10/02 10:34:13;;;;;;;22.92;3.80;;;16.10;99.90;;;;;;5020669;28;20041;-68
2022/10/02 10:40:17;;;;;;;11.88;2.10;;;16.30;99.90;;;;;;5034448;28;20118;-65
2022/10/02 10:43:20;;;;;;;19.85;2.67;;;16.50;99.90;;;;;;5039504;28;20029;-66
2022/10/02 10:46:08;;;;;;;14.70;2.72;;;16.50;99.90;;;;;;5042456;28;20564;-65
2022/10/02 10:49:14;;;;;;;20.65;3.33;;;16.40;99.90;;;;;;5034219;28;20033;-65
2022/10/02 10:52:06;;;;;;;19.88;2.88;;;16.50;99.90;;;;;;5054325;28;20049;-69
2022/10/02 10:55:09;;;;;;;22.13;3.43;;;16.40;99.90;;;;;;5040642;28;20450;-70
2022/10/02 10:57:52;;;;;;;21.75;3.47;;;16.30;99.90;;;;;;5041418;28;20123;-72
2022/10/02 11:00:55;;;;;;;20.45;2.88;;;16.30;99.90;;;;;;5033712;28;20084;-66
2022/10/02 11:03:57;;;;;;;18.60;2.50;;;16.10;99.90;;;;;;5069592;28;20041;-65
2022/10/02 11:06:25;;;;;;;22.92;3.60;;;16.00;99.90;;;;;;5045906;28;20057;-70
2022/10/02 11:09:27;;;;;;;19.85;2.80;;;15.80;99.90;;;;;;5037259;28;20033;-68
2022/10/02 11:12:20;;;;;;;16.90;2.92;;;15.60;99.90;;;;;;5068413;28;20360;-70
2022/10/02 11:15:22;;;;;;;24.55;2.90;;;15.50;99.90;;;;;;5070269;28;20080;-68
2022/10/02 11:18:00;;;;;;;17.97;3.10;;;15.40;99.90;;;;;;5029656;28;20484;-68
2022/10/02 11:20:52;;;;;;;22.90;3.45;;;15.30;99.90;;;;;;5041784;28;20045;-66
2022/10/02 11:23:58;;;;;;;21.20;3.40;;;15.30;99.90;;;;;;5040360;28;20139;-72
2022/10/02 11:26:23;;;;;;;25.83;3.95;;;15.50;99.90;;;;;;5071564;28;20671;-68
2022/10/02 11:29:08;;;;;;;22.67;3.10;;;15.70;99.90;;;;;;5042441;28;20044;-70
2022/10/02 11:31:45;;;;;;;21.67;3.03;;;15.90;99.90;;;;;;5032319;28;20120;-68
2022/10/02 11:34:28;;;;;;;19.30;3.53;;;16.10;99.90;;;;;;5030528;28;20037;-72
2022/10/02 11:37:12;;;;;;;17.42;3.03;;;16.30;99.90;;;;;;5075508;28;20075;-66
2022/10/02 11:39:40;;;;;;;22.85;3.50;;;16.40;99.90;;;;;;5037633;28;20101;-67
2022/10/02 11:42:28;;;;;;;24.75;3.67;;;16.70;99.90;;;;;;5052879;28;20037;-71
2022/10/02 11:45:42;;;;;;;23.58;3.83;;;16.90;99.90;;;;;;5040117;28;20048;-70
2022/10/02 11:48:48;;;;;;;16.08;2.70;;;17.00;99.90;;;;;;5022780;28;20049;-68
2022/10/02 11:51:27;;;;;;;15.50;2.88;;;17.00;99.90;;;;;;5048074;28;20384;-71
2022/10/02 11:54:01;;;;;;;25.40;3.65;;;16.90;99.90;;;;;;5049481;28;20068;-69
2022/10/02 11:57:01;;;;;;;16.55;2.97;;;16.80;99.90;;;;;;5049901;28;20052;-70
2022/10/02 11:59:30;;;;;;;22.42;3.00;;;16.60;99.90;;;;;;5040406;28;20564;-71
2022/10/02 12:02:18;;;;;;;17.45;2.65;;;16.60;99.90;;;;;;5063532;28;20392;-72
2022/10/02 12:05:07;;;;;;;17.15;2.80;;;16.60;99.90;;;;;;5049749;28;20053;-71
2022/10/02 12:07:43;;;;;;;19.63;3.25;;;16.80;99.90;;;;;;5049930;28;20510;-73
2022/10/02 12:10:32;;;;;;;20.17;3.08;;;16.80;99.90;;;;;;5066261;28;20041;-68
2022/10/02 12:13:16;;;;;;;24.55;3.10;;;16.90;99.90;;;;;;5047988;28;20041;-70
2022/10/02 12:16:07;;;;;;;25.15;3.55;;;16.90;99.90;;;;;;5041860;28;20044;-67
2022/10/02 12:19:10;;;;;;;17.40;2.70;;;17.00;99.90;;;;;;5027265;28;20056;-67
2022/10/02 12:27:53;;;;;;;18.48;2.60;;;16.90;99.90;;;;;;5043370;28;20456;-73
2022/10/02 12:30:43;;;;;;;16.80;2.50;;;17.00;99.90;;;;;;5054795;28;20033;-69
2022/10/02 12:33:44;;;;;;;17.73;3.45;;;17.00;99.90;;;;;;5038203;28;20124;-72
2022/10/02 12:36:25;;;;;;;22.80;2.78;;;17.10;99.90;;;;;;5022851;28;20529;-70
2022/10/02 12:39:13;;;;;;;22.70;2.95;;;17.00;99.90;;;;;;5035977;28;20049;-69
2022/10/02 12:41:41;;;;;;;15.43;2.33;;;17.00;99.90;;;;;;5052880;28;20041;-70
2022/10/02 12:44:23;;;;;;;19.83;2.75;;;16.90;99.90;;;;;;5037835;28;20049;-71
2022/10/02 12:46:58;;;;;;;18.05;2.55;;;16.90;99.90;;;;;;5043003;28;20243;-68
2022/10/02 12:49:46;;;;;;;19.70;2.58;;;16.90;99.90;;;;;;5052901;28;20045;-71
2022/10/02 12:52:22;;;;;;;18.38;2.78;;;16.80;99.90;;;;;;5085927;28;20049;-73
2022/10/02 12:55:07;;;;;;;23.25;2.75;;;16.60;99.90;;;;;;5036170;28;20048;-70
2022/10/02 12:58:00;;;;;;;17.73;2.88;;;16.40;99.90;;;;;;5051809;28;20040;-65
2022/10/02 13:00:44;;;;;;;19.27;2.35;;;16.20;99.90;;;;;;5050972;28;20072;-68
2022/10/02 13:03:16;;;;;;;18.48;2.65;;;16.10;99.90;;;;;;5052239;28;20041;-72
2022/10/02 13:06:16;;;;;;;10.53;2.20;;;16.20;99.90;;;;;;5035426;28;20041;-73
2022/10/02 13:08:59;;;;;;;15.18;2.22;;;16.40;99.90;;;;;;5048932;28;20029;-70
2022/10/02 13:11:40;;;;;;;20.52;2.45;;;16.40;99.90;;;;;;5052474;28;20041;-69
2022/10/02 13:14:25;;;;;;;20.40;3.38;;;16.40;99.90;;;;;;5052787;28;20512;-69
2022/10/02 13:17:04;;;;;;;22.92;2.63;;;16.60;99.90;;;;;;5041841;28;20049;-68
2022/10/02 13:19:32;;;;;;;21.73;2.78;;;16.70;99.90;;;;;;5045911;28;20434;-69
2022/10/02 13:22:19;;;;;;;15.57;2.28;;;16.80;99.90;;;;;;5051361;28;20063;-69
2022/10/02 13:25:06;;;;;;;21.50;2.72;;;16.70;99.90;;;;;;5053122;28;20049;-66
2022/10/02 13:27:50;;;;;;;21.15;2.35;;;16.50;99.90;;;;;;5050281;28;20036;-66
2022/10/02 13:30:22;;;;;;;17.00;2.50;;;16.30;99.90;;;;;;5034252;28;20033;-64
2022/10/02 13:33:10;;;;;;;21.67;2.55;;;16.20;99.90;;;;;;5024176;28;20094;-65
2022/10/02 13:35:53;;;;;;;18.30;2.28;;;15.90;99.90;;;;;;5032996;28;20045;-64
2022/10/02 13:38:25;;;;;;;21.92;2.67;;;16.00;99.90;;;;;;5057605;28;20038;-67
2022/10/02 13:41:05;;;;;;;26.20;2.73;;;16.00;99.90;;;;;;5080709;28;20052;-70
2022/10/02 13:43:41;;;;;;;25.80;3.13;;;15.90;99.90;;;;;;5059512;28;20119;-73
2022/10/02 13:46:20;;;;;;;21.02;3.45;;;15.90;99.90;;;;;;5054390;28;20088;-69
2022/10/02 13:49:01;;;;;;;24.10;3.05;;;15.90;99.90;;;;;;5025919;28;20037;-69
2022/10/02 13:51:35;;;;;;;22.30;2.70;;;15.90;99.90;;;;;;5044574;28;20088;-71
2022/10/02 13:54:25;;;;;;;23.13;3.35;;;16.00;99.90;;;;;;5040379;28;20433;-69
2022/10/02 13:57:18;;;;;;;23.80;3.00;;;16.00;99.90;;;;;;5043388;28;20132;-70
2022/10/02 13:59:51;;;;;;;;;;;16.00;99.90;;;;;;5041265;28;20033;-68
2022/10/02 14:02:54;;;;;;;17.77;2.72;;;15.90;99.90;;;;;;5034069;28;19921;-69
2022/10/02 14:05:45;;;;;;;21.30;2.95;;;16.00;99.90;;;;;;5044159;28;20119;-69